Time;durP1;ratioP1;P1;durP2;ratioP2;P2;SDS_P1;SDS_P2;PMS_P1;PMS_P2;Temp;Humidity;BMP_temperature;BMP_pressure;BME280_temperature;BME280_humidity;BME280_pressure;Samples;Min_cycle;Max_cycle;Signal;HPM_P1;HPM_P2
2023/08/30 00:01:41;;;;;;;4.47;3.53;;;;;;;;;;5036969;28;20200;-52
2023/08/30 00:04:08;;;;;;;6.80;3.70;;;;;;;;;;5036110;28;20188;-52
2023/08/30 00:06:34;;;;;;;5.67;4.03;;;;;;;;;;5035311;28;20188;-54
2023/08/30 00:09:00;;;;;;;4.70;3.20;;;;;;;;;;5035831;28;20173;-57
2023/08/30 00:11:26;;;;;;;4.17;3.23;;;;;;;;;;5036905;28;20283;-49
2023/08/30 00:13:52;;;;;;;6.93;3.70;;;;;;;;;;5037352;28;20172;-48
2023/08/30 00:16:18;;;;;;;5.63;3.43;;;;;;;;;;5036413;28;20182;-53
2023/08/30 00:18:45;;;;;;;5.13;3.60;;;;;;;;;;5035864;28;20179;-51
2023/08/30 00:21:11;;;;;;;5.40;3.23;;;;;;;;;;5037428;28;20276;-54
2023/08/30 00:23:37;;;;;;;5.53;3.80;;;;;;;;;;5037589;28;20173;-52
2023/08/30 00:26:03;;;;;;;5.10;3.93;;;;;;;;;;5037237;28;20181;-49
2023/08/30 00:28:31;;;;;;;8.90;4.30;;;;;;;;;;5037017;28;20175;-50
2023/08/30 00:30:57;;;;;;;5.57;3.63;;;;;;;;;;5036621;28;20217;-53
2023/08/30 00:33:24;;;;;;;5.00;4.13;;;;;;;;;;5055187;28;20181;-50
2023/08/30 00:35:59;;;;;;;6.67;3.63;;;;;;;;;;5037310;28;20231;-53
2023/08/30 00:38:26;;;;;;;6.50;3.80;;;;;;;;;;5037340;28;20536;-49
2023/08/30 00:40:53;;;;;;;6.13;3.73;;;;;;;;;;5037321;28;20196;-51
2023/08/30 00:43:19;;;;;;;6.43;3.63;;;;;;;;;;5037061;28;20173;-52
2023/08/30 00:45:48;;;;;;;6.33;3.50;;;;;;;;;;5036712;28;20607;-51
2023/08/30 00:48:15;;;;;;;7.00;3.50;;;;;;;;;;5035186;28;20177;-51
2023/08/30 00:50:42;;;;;;;8.10;3.10;;;;;;;;;;5036712;28;20217;-53
2023/08/30 00:53:11;;;;;;;4.90;3.30;;;;;;;;;;5036494;28;20238;-54
2023/08/30 00:55:38;;;;;;;4.10;3.37;;;;;;;;;;5054013;28;20234;-53
2023/08/30 00:58:04;;;;;;;8.00;4.17;;;;;;;;;;5039731;28;20170;-52
2023/08/30 01:00:30;;;;;;;6.07;3.47;;;;;;;;;;5039684;28;20207;-52
2023/08/30 01:02:57;;;;;;;8.43;3.67;;;;;;;;;;5056841;28;20257;-52
2023/08/30 01:05:24;;;;;;;9.20;3.37;;;;;;;;;;5040220;28;20287;-49
2023/08/30 01:07:50;;;;;;;6.17;3.63;;;;;;;;;;5040853;28;20181;-52
2023/08/30 01:10:16;;;;;;;4.87;3.40;;;;;;;;;;5039735;28;20221;-54
2023/08/30 01:12:50;;;;;;;8.20;3.87;;;;;;;;;;5058686;28;20173;-50
2023/08/30 01:15:19;;;;;;;4.10;3.07;;;;;;;;;;5040622;28;20169;-54
2023/08/30 01:17:45;;;;;;;5.30;3.80;;;;;;;;;;5040175;28;20209;-52
2023/08/30 01:20:20;;;;;;;5.60;3.57;;;;;;;;;;5039985;28;20623;-50
2023/08/30 01:23:01;;;;;;;4.60;4.10;;;;;;;;;;5039555;28;20173;-53
2023/08/30 01:25:33;;;;;;;6.47;3.90;;;;;;;;;;5035819;28;20303;-50
2023/08/30 01:28:02;;;;;;;7.03;3.37;;;;;;;;;;5038102;28;20162;-53
2023/08/30 01:30:29;;;;;;;5.77;3.90;;;;;;;;;;5036512;28;20201;-50
2023/08/30 01:32:56;;;;;;;4.47;3.30;;;;;;;;;;5037520;28;20180;-53
2023/08/30 01:35:25;;;;;;;7.70;4.20;;;;;;;;;;5038432;28;20230;-51
2023/08/30 01:37:52;;;;;;;6.30;3.53;;;;;;;;;;5037396;28;20269;-53
2023/08/30 01:40:18;;;;;;;5.47;3.90;;;;;;;;;;5036829;28;20205;-48
2023/08/30 01:42:45;;;;;;;6.23;3.70;;;;;;;;;;5036995;28;20178;-48
2023/08/30 01:45:13;;;;;;;7.07;4.00;;;;;;;;;;5036947;28;20174;-51
2023/08/30 01:47:40;;;;;;;8.00;3.93;;;;;;;;;;5036158;28;20177;-50
2023/08/30 01:50:08;;;;;;;5.70;3.90;;;;;;;;;;5036162;28;20184;-50
2023/08/30 01:52:34;;;;;;;6.10;3.57;;;;;;;;;;5035745;28;20231;-50
2023/08/30 01:55:00;;;;;;;8.83;3.80;;;;;;;;;;5036820;28;20220;-54
2023/08/30 01:57:27;;;;;;;6.67;4.20;;;;;;;;;;5036213;28;20253;-48
2023/08/30 01:59:54;;;;;;;8.47;3.80;;;;;;;;;;5037274;28;20174;-51
2023/08/30 02:02:20;;;;;;;3.97;3.40;;;;;;;;;;5036586;28;20182;-50
2023/08/30 02:04:46;;;;;;;6.63;4.23;;;;;;;;;;5037888;28;20558;-51
2023/08/30 02:07:18;;;;;;;5.83;3.90;;;;;;;;;;5035779;28;20551;-53
2023/08/30 02:09:55;;;;;;;6.03;3.63;;;;;;;;;;5035682;28;20184;-52
2023/08/30 02:12:24;;;;;;;7.90;4.03;;;;;;;;;;5034899;28;20235;-51
2023/08/30 02:14:50;;;;;;;5.47;3.80;;;;;;;;;;5033929;28;20166;-52
2023/08/30 02:17:17;;;;;;;4.03;3.40;;;;;;;;;;5032766;28;20416;-53
2023/08/30 02:19:44;;;;;;;8.87;3.80;;;;;;;;;;5035104;28;20185;-48
2023/08/30 02:22:11;;;;;;;5.00;4.00;;;;;;;;;;5035229;28;20181;-54
2023/08/30 02:24:37;;;;;;;6.57;3.53;;;;;;;;;;5036248;28;20324;-53
2023/08/30 02:27:04;;;;;;;3.80;3.33;;;;;;;;;;5036658;28;20272;-50
2023/08/30 02:29:30;;;;;;;4.63;3.20;;;;;;;;;;5035830;28;20452;-52
2023/08/30 02:31:56;;;;;;;3.90;3.23;;;;;;;;;;5036774;28;20275;-52
2023/08/30 02:34:22;;;;;;;5.20;3.90;;;;;;;;;;5037392;28;20166;-52
2023/08/30 02:36:48;;;;;;;7.90;3.40;;;;;;;;;;5035909;28;20174;-48
2023/08/30 02:39:15;;;;;;;5.83;3.73;;;;;;;;;;5036027;28;20226;-53
2023/08/30 02:41:41;;;;;;;7.93;3.20;;;;;;;;;;5035272;28;20190;-53
2023/08/30 02:44:12;;;;;;;9.57;3.50;;;;;;;;;;5035751;28;20189;-53
2023/08/30 02:46:38;;;;;;;5.83;3.53;;;;;;;;;;5036313;28;20214;-54
2023/08/30 02:49:05;;;;;;;6.07;3.80;;;;;;;;;;5035902;28;20178;-54
2023/08/30 02:51:31;;;;;;;5.53;3.40;;;;;;;;;;5034689;28;20300;-50
2023/08/30 02:53:56;;;;;;;5.23;3.10;;;;;;;;;;5034682;28;20273;-52
2023/08/30 02:56:22;;;;;;;5.20;3.37;;;;;;;;;;5035194;28;20185;-50
2023/08/30 02:58:48;;;;;;;3.43;3.10;;;;;;;;;;5035573;28;20530;-52
2023/08/30 03:01:14;;;;;;;3.60;3.20;;;;;;;;;;5035088;28;20182;-54
2023/08/30 03:03:40;;;;;;;7.00;4.00;;;;;;;;;;5035894;28;20260;-55
2023/08/30 03:06:06;;;;;;;4.73;3.23;;;;;;;;;;5034688;28;20188;-54
2023/08/30 03:08:36;;;;;;;4.77;3.17;;;;;;;;;;5035330;28;20173;-55
2023/08/30 03:11:10;;;;;;;3.70;3.27;;;;;;;;;;5035382;28;20204;-53
2023/08/30 03:13:37;;;;;;;5.60;3.30;;;;;;;;;;5035028;28;20541;-51
2023/08/30 03:16:03;;;;;;;6.20;3.53;;;;;;;;;;5035098;28;20177;-51
2023/08/30 03:18:29;;;;;;;3.37;2.93;;;;;;;;;;5035531;28;20171;-52
2023/08/30 03:21:02;;;;;;;4.87;3.37;;;;;;;;;;5036133;28;20457;-51
2023/08/30 03:23:28;;;;;;;7.03;3.80;;;;;;;;;;5036629;28;20502;-49
2023/08/30 03:25:54;;;;;;;3.80;3.50;;;;;;;;;;5034500;28;20668;-53
2023/08/30 03:28:20;;;;;;;3.87;2.83;;;;;;;;;;5035330;28;20175;-51
2023/08/30 03:30:46;;;;;;;4.33;3.50;;;;;;;;;;5035270;28;20213;-52
2023/08/30 03:33:13;;;;;;;5.60;3.53;;;;;;;;;;5035204;28;20174;-53
2023/08/30 03:35:39;;;;;;;5.27;3.90;;;;;;;;;;5035202;28;20193;-52
2023/08/30 03:38:05;;;;;;;5.77;4.10;;;;;;;;;;5034617;28;20189;-53
2023/08/30 03:40:31;;;;;;;5.83;3.80;;;;;;;;;;5034771;28;20188;-49
2023/08/30 03:42:58;;;;;;;7.70;4.63;;;;;;;;;;5034865;28;20174;-51
2023/08/30 03:45:24;;;;;;;3.90;3.47;;;;;;;;;;5035088;28;20166;-53
2023/08/30 03:47:50;;;;;;;4.13;3.57;;;;;;;;;;5034052;28;20273;-51
2023/08/30 03:50:16;;;;;;;5.53;4.57;;;;;;;;;;5034176;28;20182;-53
2023/08/30 03:52:43;;;;;;;4.93;3.43;;;;;;;;;;5033519;28;20178;-53
2023/08/30 03:55:08;;;;;;;7.87;3.83;;;;;;;;;;5033831;28;20304;-54
2023/08/30 03:57:38;;;;;;;4.40;3.97;;;;;;;;;;5034256;28;20174;-53
2023/08/30 04:00:04;;;;;;;6.57;3.93;;;;;;;;;;5034162;28;20174;-48
2023/08/30 04:02:30;;;;;;;5.40;3.83;;;;;;;;;;5034330;28;20487;-51
2023/08/30 04:04:56;;;;;;;6.13;4.37;;;;;;;;;;5033494;28;20185;-53
2023/08/30 04:07:25;;;;;;;4.73;4.23;;;;;;;;;;5034765;28;20174;-53
2023/08/30 04:09:51;;;;;;;5.67;4.30;;;;;;;;;;5033953;28;20185;-54
2023/08/30 04:12:17;;;;;;;5.67;4.30;;;;;;;;;;5032953;28;20190;-54
2023/08/30 04:14:43;;;;;;;8.87;4.73;;;;;;;;;;5033734;28;20258;-52
2023/08/30 04:17:09;;;;;;;5.53;4.20;;;;;;;;;;5034422;28;20175;-51
2023/08/30 04:19:36;;;;;;;4.27;3.80;;;;;;;;;;5030683;28;20482;-54
2023/08/30 04:22:02;;;;;;;4.60;4.03;;;;;;;;;;5026041;28;20633;-49
2023/08/30 04:24:28;;;;;;;6.90;4.70;;;;;;;;;;5028296;28;20550;-52
2023/08/30 04:26:54;;;;;;;5.10;4.17;;;;;;;;;;5029149;28;20319;-49
2023/08/30 04:29:21;;;;;;;6.97;4.53;;;;;;;;;;5030680;28;20178;-54
2023/08/30 04:31:48;;;;;;;6.60;4.23;;;;;;;;;;5026935;28;20581;-48
2023/08/30 04:34:16;;;;;;;4.87;4.33;;;;;;;;;;5029178;28;20478;-51
2023/08/30 04:36:41;;;;;;;5.40;4.90;;;;;;;;;;5027352;28;20512;-48
2023/08/30 04:39:07;;;;;;;5.37;4.87;;;;;;;;;;5027061;28;20598;-52
2023/08/30 04:41:33;;;;;;;7.83;4.97;;;;;;;;;;5027319;28;20628;-51
2023/08/30 04:43:59;;;;;;;8.93;4.83;;;;;;;;;;5027367;28;20246;-52
2023/08/30 04:46:25;;;;;;;5.73;4.77;;;;;;;;;;5026937;28;20218;-52
2023/08/30 04:48:51;;;;;;;9.17;6.07;;;;;;;;;;5028032;28;20207;-53
2023/08/30 04:51:17;;;;;;;6.50;4.90;;;;;;;;;;5026914;28;20229;-50
2023/08/30 04:53:43;;;;;;;8.03;5.10;;;;;;;;;;5026046;28;20213;-54
2023/08/30 04:56:14;;;;;;;5.30;4.80;;;;;;;;;;5027958;28;20429;-53
2023/08/30 04:58:39;;;;;;;10.13;5.70;;;;;;;;;;5028337;28;20231;-54
2023/08/30 05:01:06;;;;;;;6.20;5.60;;;;;;;;;;5026822;28;20534;-50
2023/08/30 05:03:33;;;;;;;8.33;5.50;;;;;;;;;;5027313;28;20284;-51
2023/08/30 05:05:59;;;;;;;12.77;6.77;;;;;;;;;;5027547;28;20240;-54
2023/08/30 05:08:25;;;;;;;10.03;5.70;;;;;;;;;;5027960;28;20265;-53
2023/08/30 05:10:54;;;;;;;13.70;9.00;;;;;;;;;;5027237;28;20612;-52
2023/08/30 05:13:20;;;;;;;16.73;8.37;;;;;;;;;;5026089;28;20286;-52
2023/08/30 05:15:46;;;;;;;9.60;6.33;;;;;;;;;;5026908;28;20202;-54
2023/08/30 05:18:13;;;;;;;7.87;6.00;;;;;;;;;;5025989;28;20182;-54
2023/08/30 05:20:39;;;;;;;13.27;6.43;;;;;;;;;;5029754;28;20743;-51
2023/08/30 05:23:05;;;;;;;7.80;5.33;;;;;;;;;;5029212;28;20181;-53
2023/08/30 05:25:32;;;;;;;6.67;5.67;;;;;;;;;;5029582;28;20226;-50
2023/08/30 05:27:58;;;;;;;9.03;5.30;;;;;;;;;;5027954;28;20630;-49
2023/08/30 05:30:24;;;;;;;5.97;5.37;;;;;;;;;;5028577;28;20279;-50
2023/08/30 05:32:50;;;;;;;7.03;4.80;;;;;;;;;;5029955;28;20230;-55
2023/08/30 05:35:16;;;;;;;5.70;4.13;;;;;;;;;;5029075;28;20186;-53
2023/08/30 05:37:42;;;;;;;7.67;5.30;;;;;;;;;;5029059;28;20245;-54
2023/08/30 05:40:09;;;;;;;8.27;5.43;;;;;;;;;;5028685;28;20277;-52
2023/08/30 05:42:35;;;;;;;11.03;5.77;;;;;;;;;;5031086;28;20170;-49
2023/08/30 05:45:01;;;;;;;6.67;4.77;;;;;;;;;;5032425;28;20268;-51
2023/08/30 05:47:29;;;;;;;7.00;5.87;;;;;;;;;;5031164;28;20342;-51
2023/08/30 05:49:54;;;;;;;6.23;4.73;;;;;;;;;;5031972;28;20194;-55
2023/08/30 05:52:21;;;;;;;7.37;5.00;;;;;;;;;;5030270;28;20283;-55
2023/08/30 05:54:47;;;;;;;7.40;4.63;;;;;;;;;;5028573;28;20166;-52
2023/08/30 05:57:13;;;;;;;11.13;4.40;;;;;;;;;;5030859;28;20174;-53
2023/08/30 05:59:39;;;;;;;7.43;4.63;;;;;;;;;;5028698;28;20194;-52
2023/08/30 06:02:05;;;;;;;8.00;4.27;;;;;;;;;;5028309;28;20252;-50
2023/08/30 06:04:31;;;;;;;8.83;4.80;;;;;;;;;;5028418;28;20189;-54
2023/08/30 06:06:57;;;;;;;6.23;4.90;;;;;;;;;;5027728;28;20178;-49
2023/08/30 06:09:23;;;;;;;8.33;5.43;;;;;;;;;;5026812;28;20174;-48
2023/08/30 06:11:49;;;;;;;8.50;4.73;;;;;;;;;;5030201;28;20201;-50
2023/08/30 06:14:15;;;;;;;9.33;4.80;;;;;;;;;;5029907;28;20198;-51
2023/08/30 06:16:44;;;;;;;6.33;5.27;;;;;;;;;;5030203;28;20196;-53
2023/08/30 06:19:13;;;;;;;6.30;4.17;;;;;;;;;;5027209;28;20177;-52
2023/08/30 06:21:39;;;;;;;12.73;4.83;;;;;;;;;;5027678;28;20272;-49
2023/08/30 06:24:05;;;;;;;6.63;5.03;;;;;;;;;;5031588;28;20332;-55
2023/08/30 06:26:32;;;;;;;8.47;4.97;;;;;;;;;;5033391;28;20174;-53
2023/08/30 06:28:58;;;;;;;8.23;6.00;;;;;;;;;;5029822;28;20184;-53
2023/08/30 06:31:24;;;;;;;9.57;5.97;;;;;;;;;;5029741;28;20213;-51
2023/08/30 06:33:50;;;;;;;8.03;5.37;;;;;;;;;;5030621;28;20177;-51
2023/08/30 06:36:17;;;;;;;11.43;5.70;;;;;;;;;;5029286;28;20209;-48
2023/08/30 06:38:43;;;;;;;8.17;5.83;;;;;;;;;;5029720;28;20173;-51
2023/08/30 06:41:09;;;;;;;12.17;5.60;;;;;;;;;;5046406;28;20162;-52
2023/08/30 06:43:36;;;;;;;6.70;5.40;;;;;;;;;;5030421;28;20174;-50
2023/08/30 06:46:02;;;;;;;6.20;5.03;;;;;;;;;;5031363;28;20459;-54
2023/08/30 06:48:29;;;;;;;8.17;5.43;;;;;;;;;;5029654;28;20560;-51
2023/08/30 06:50:58;;;;;;;8.03;4.90;;;;;;;;;;5031722;28;20767;-51
2023/08/30 06:53:24;;;;;;;9.13;5.60;;;;;;;;;;5050269;28;20276;-48
2023/08/30 06:55:57;;;;;;;7.20;5.27;;;;;;;;;;5050370;28;20166;-56
2023/08/30 06:58:26;;;;;;;12.57;6.07;;;;;;;;;;5051028;28;20165;-47
2023/08/30 07:00:52;;;;;;;6.97;5.47;;;;;;;;;;5052146;28;20180;-54
2023/08/30 07:03:19;;;;;;;10.17;6.70;;;;;;;;;;5035215;28;20825;-54
2023/08/30 07:05:47;;;;;;;10.60;5.80;;;;;;;;;;5048855;28;20170;-50
2023/08/30 07:08:13;;;;;;;8.97;4.70;;;;;;;;;;5029763;28;20801;-51
2023/08/30 07:10:39;;;;;;;7.87;5.07;;;;;;;;;;5050273;28;20236;-50
2023/08/30 07:13:10;;;;;;;13.87;5.50;;;;;;;;;;5047572;28;20208;-52
2023/08/30 07:15:36;;;;;;;9.77;5.70;;;;;;;;;;5025680;28;20198;-53
2023/08/30 07:18:03;;;;;;;11.63;6.33;;;;;;;;;;5010853;28;20738;-52
2023/08/30 07:20:30;;;;;;;7.47;6.00;;;;;;;;;;5011731;28;20456;-52
2023/08/30 07:22:55;;;;;;;9.17;6.17;;;;;;;;;;5011121;28;20173;-53
2023/08/30 07:25:22;;;;;;;9.13;5.60;;;;;;;;;;5007775;28;20222;-54
2023/08/30 07:27:48;;;;;;;9.30;6.37;;;;;;;;;;5007822;28;20269;-54
2023/08/30 07:30:15;;;;;;;8.33;6.27;;;;;;;;;;5007143;28;20245;-51
2023/08/30 07:32:41;;;;;;;8.27;7.07;;;;;;;;;;5009821;28;20365;-53
2023/08/30 07:35:09;;;;;;;9.80;7.20;;;;;;;;;;5009038;28;20259;-50
2023/08/30 07:37:35;;;;;;;8.17;6.60;;;;;;;;;;5009517;28;20534;-50
2023/08/30 07:40:04;;;;;;;8.93;6.60;;;;;;;;;;5008356;28;20170;-49
2023/08/30 07:42:30;;;;;;;9.73;6.57;;;;;;;;;;5009821;28;20175;-52
2023/08/30 07:44:56;;;;;;;7.90;5.53;;;;;;;;;;5011387;28;20184;-52
2023/08/30 07:47:22;;;;;;;7.03;5.47;;;;;;;;;;5009489;28;20249;-52
2023/08/30 07:49:48;;;;;;;6.23;5.03;;;;;;;;;;5004414;28;20610;-50
2023/08/30 07:52:14;;;;;;;7.50;5.37;;;;;;;;;;5002797;28;20612;-48
2023/08/30 07:54:41;;;;;;;9.37;6.60;;;;;;;;;;5001709;28;20171;-50
2023/08/30 07:57:07;;;;;;;8.23;5.73;;;;;;;;;;5003555;28;20171;-50
2023/08/30 07:59:34;;;;;;;7.60;6.50;;;;;;;;;;5004955;28;20281;-51
2023/08/30 08:02:00;;;;;;;6.97;5.57;;;;;;;;;;5002817;28;20265;-49
2023/08/30 08:04:26;;;;;;;6.90;5.43;;;;;;;;;;5003826;28;20277;-54
2023/08/30 08:06:52;;;;;;;7.47;5.70;;;;;;;;;;5002135;28;20181;-50
2023/08/30 08:09:18;;;;;;;7.60;5.37;;;;;;;;;;5004642;28;20171;-52
2023/08/30 08:11:44;;;;;;;8.97;6.23;;;;;;;;;;5007717;28;20206;-48
2023/08/30 08:14:11;;;;;;;9.40;5.90;;;;;;;;;;5007094;28;20725;-50
2023/08/30 08:16:37;;;;;;;8.30;5.63;;;;;;;;;;5008518;28;20236;-53
2023/08/30 08:19:06;;;;;;;10.50;5.43;;;;;;;;;;5009128;28;20572;-47
2023/08/30 08:21:32;;;;;;;7.67;5.87;;;;;;;;;;5009259;28;20174;-50
2023/08/30 08:23:58;;;;;;;5.80;5.20;;;;;;;;;;5007798;28;20182;-51
2023/08/30 08:26:25;;;;;;;8.50;6.83;;;;;;;;;;5011260;28;20184;-52
2023/08/30 08:28:51;;;;;;;11.43;7.27;;;;;;;;;;5012256;28;20174;-54
2023/08/30 08:31:17;;;;;;;8.40;6.13;;;;;;;;;;5011243;28;20220;-51
2023/08/30 08:33:43;;;;;;;9.10;6.80;;;;;;;;;;5012946;28;20177;-48
2023/08/30 08:36:11;;;;;;;8.87;6.10;;;;;;;;;;5012630;28;20166;-51
2023/08/30 08:38:38;;;;;;;8.70;6.23;;;;;;;;;;5012267;28;20204;-50
2023/08/30 08:41:09;;;;;;;9.17;7.13;;;;;;;;;;5013473;28;20174;-53
2023/08/30 08:43:36;;;;;;;8.70;6.27;;;;;;;;;;5029978;28;20252;-50
2023/08/30 08:46:06;;;;;;;10.10;6.83;;;;;;;;;;5028184;28;20259;-52
2023/08/30 08:48:38;;;;;;;9.90;7.13;;;;;;;;;;5011410;28;20200;-51
2023/08/30 08:51:05;;;;;;;8.73;6.50;;;;;;;;;;5011490;28;20593;-52
2023/08/30 08:53:31;;;;;;;10.43;6.20;;;;;;;;;;5012570;28;20261;-51
2023/08/30 08:55:59;;;;;;;9.70;6.17;;;;;;;;;;5031615;28;20473;-48
2023/08/30 08:58:26;;;;;;;10.07;6.17;;;;;;;;;;5011881;28;20170;-53
2023/08/30 09:00:52;;;;;;;10.00;6.47;;;;;;;;;;5028738;28;20231;-49
2023/08/30 09:03:20;;;;;;;9.73;6.10;;;;;;;;;;5009961;28;20181;-50
2023/08/30 09:05:48;;;;;;;6.67;5.40;;;;;;;;;;5011693;28;20180;-53
2023/08/30 09:08:16;;;;;;;6.80;5.37;;;;;;;;;;5010127;28;20177;-51
2023/08/30 09:10:44;;;;;;;6.90;4.93;;;;;;;;;;5010248;28;20206;-49
2023/08/30 09:13:10;;;;;;;5.73;4.60;;;;;;;;;;5029035;28;20170;-49
2023/08/30 09:15:37;;;;;;;7.00;4.73;;;;;;;;;;5012105;28;20166;-54
2023/08/30 09:18:03;;;;;;;6.37;4.80;;;;;;;;;;5010371;28;20280;-51
2023/08/30 09:20:30;;;;;;;7.50;5.50;;;;;;;;;;5012077;28;20174;-51
2023/08/30 09:22:57;;;;;;;6.53;4.27;;;;;;;;;;5015468;28;20197;-51
2023/08/30 09:25:27;;;;;;;12.47;5.03;;;;;;;;;;5010738;28;20234;-51
2023/08/30 09:27:59;;;;;;;6.53;4.43;;;;;;;;;;5010755;28;20228;-51
2023/08/30 09:30:27;;;;;;;8.50;4.30;;;;;;;;;;5011249;28;20186;-51
2023/08/30 09:32:53;;;;;;;8.07;4.80;;;;;;;;;;5013694;28;20316;-53
2023/08/30 09:35:19;;;;;;;5.17;4.30;;;;;;;;;;5015437;28;20779;-53
2023/08/30 09:37:47;;;;;;;7.20;4.07;;;;;;;;;;5014822;28;20767;-49
2023/08/30 09:40:19;;;;;;;4.27;3.63;;;;;;;;;;5013669;28;20298;-53
2023/08/30 09:42:45;;;;;;;4.73;4.13;;;;;;;;;;5011383;28;20214;-50
2023/08/30 09:45:18;;;;;;;5.67;3.90;;;;;;;;;;5010439;28;20175;-50
2023/08/30 09:47:49;;;;;;;5.30;3.13;;;;;;;;;;5008127;28;20186;-52
2023/08/30 09:50:23;;;;;;;8.37;3.53;;;;;;;;;;5008632;28;20551;-55
2023/08/30 09:52:50;;;;;;;7.27;3.50;;;;;;;;;;5008425;28;20210;-51
2023/08/30 09:55:19;;;;;;;7.07;4.10;;;;;;;;;;5007473;28;20187;-49
2023/08/30 09:57:45;;;;;;;6.90;4.33;;;;;;;;;;5008010;28;20386;-49
2023/08/30 10:00:12;;;;;;;4.40;3.73;;;;;;;;;;5009853;28;20184;-48
2023/08/30 10:02:44;;;;;;;5.53;5.00;;;;;;;;;;5009881;28;20179;-49
2023/08/30 10:05:11;;;;;;;7.10;5.00;;;;;;;;;;5012032;28;20183;-51
2023/08/30 10:07:40;;;;;;;6.23;4.03;;;;;;;;;;5012033;28;20190;-51
2023/08/30 10:10:07;;;;;;;6.00;4.00;;;;;;;;;;5012977;28;20178;-54
2023/08/30 10:12:33;;;;;;;4.93;3.87;;;;;;;;;;5013835;28;20206;-52
2023/08/30 10:15:00;;;;;;;4.03;3.33;;;;;;;;;;5011956;28;20178;-55
2023/08/30 10:17:31;;;;;;;5.80;4.10;;;;;;;;;;5012239;28;20317;-52
2023/08/30 10:20:03;;;;;;;6.77;3.70;;;;;;;;;;5013965;28;20530;-50
2023/08/30 10:22:29;;;;;;;4.63;3.37;;;;;;;;;;5013069;28;20194;-52
2023/08/30 10:24:58;;;;;;;6.87;3.63;;;;;;;;;;5012162;28;20241;-49
2023/08/30 10:27:25;;;;;;;4.50;3.33;;;;;;;;;;5011923;28;20198;-51
2023/08/30 10:29:54;;;;;;;4.23;3.50;;;;;;;;;;5009798;28;20198;-52
2023/08/30 10:32:22;;;;;;;7.97;3.63;;;;;;;;;;5009694;28;20214;-51
2023/08/30 10:34:52;;;;;;;4.37;3.03;;;;;;;;;;5010135;28;20171;-52
2023/08/30 10:37:27;;;;;;;7.17;4.63;;;;;;;;;;5010215;28;20257;-49
2023/08/30 10:39:54;;;;;;;5.70;3.57;;;;;;;;;;5008085;28;20919;-49
2023/08/30 10:42:23;;;;;;;4.43;2.83;;;;;;;;;;5007408;28;20269;-52
2023/08/30 10:45:06;;;;;;;3.37;2.70;;;;;;;;;;5010177;28;20175;-49
2023/08/30 10:47:35;;;;;;;3.50;2.40;;;;;;;;;;5009283;28;20171;-47
2023/08/30 10:50:04;;;;;;;4.13;2.60;;;;;;;;;;5009501;28;20185;-54
2023/08/30 10:52:31;;;;;;;8.73;3.03;;;;;;;;;;4994460;28;20241;-50
2023/08/30 10:55:07;;;;;;;4.13;3.23;;;;;;;;;;5009349;28;20167;-52
2023/08/30 10:57:34;;;;;;;5.00;3.57;;;;;;;;;;5011707;28;20175;-52
2023/08/30 11:00:07;;;;;;;4.67;3.57;;;;;;;;;;5011007;28;20175;-51
2023/08/30 11:02:35;;;;;;;4.67;2.87;;;;;;;;;;5011647;28;20175;-54
2023/08/30 11:05:03;;;;;;;4.67;3.50;;;;;;;;;;5009194;28;20269;-54
2023/08/30 11:07:29;;;;;;;7.70;3.80;;;;;;;;;;5008490;28;20175;-54
2023/08/30 11:09:58;;;;;;;5.17;3.43;;;;;;;;;;5007823;28;20600;-50
2023/08/30 11:12:25;;;;;;;4.93;3.80;;;;;;;;;;5007462;28;20215;-53
2023/08/30 11:14:54;;;;;;;5.17;3.30;;;;;;;;;;5008019;28;20229;-51
2023/08/30 11:17:20;;;;;;;11.50;4.80;;;;;;;;;;5007624;28;20162;-51
2023/08/30 11:19:46;;;;;;;5.43;3.37;;;;;;;;;;5009216;28;20175;-54
2023/08/30 11:22:16;;;;;;;3.20;2.90;;;;;;;;;;5008680;28;20200;-51
2023/08/30 11:24:43;;;;;;;3.83;2.63;;;;;;;;;;5017039;28;20320;-54
2023/08/30 11:27:10;;;;;;;4.30;3.00;;;;;;;;;;5013705;28;20188;-52
2023/08/30 11:29:36;;;;;;;4.30;2.33;;;;;;;;;;5029835;28;20218;-50
2023/08/30 11:32:03;;;;;;;9.30;3.10;;;;;;;;;;5012457;28;20327;-50
2023/08/30 11:34:31;;;;;;;7.47;3.13;;;;;;;;;;5013403;28;20277;-54
2023/08/30 11:36:59;;;;;;;5.67;2.97;;;;;;;;;;5011391;28;20181;-50
2023/08/30 11:39:28;;;;;;;4.47;3.20;;;;;;;;;;5011563;28;20170;-54
2023/08/30 11:41:56;;;;;;;4.53;2.83;;;;;;;;;;5010283;28;20193;-50
2023/08/30 11:44:28;;;;;;;6.70;2.77;;;;;;;;;;5009422;28;20178;-51
2023/08/30 11:46:59;;;;;;;5.50;3.10;;;;;;;;;;5027925;28;20316;-53
2023/08/30 11:49:29;;;;;;;5.30;3.23;;;;;;;;;;5010023;28;20174;-51
2023/08/30 11:51:57;;;;;;;3.13;2.40;;;;;;;;;;5028201;28;20287;-53
2023/08/30 11:54:24;;;;;;;4.47;2.87;;;;;;;;;;5026648;28;20269;-53
2023/08/30 11:56:51;;;;;;;5.27;3.00;;;;;;;;;;5010160;28;20557;-49
2023/08/30 11:59:21;;;;;;;7.23;3.30;;;;;;;;;;5011107;28;20182;-54
2023/08/30 12:01:47;;;;;;;5.37;3.47;;;;;;;;;;5009937;28;20603;-52
2023/08/30 12:04:13;;;;;;;3.87;2.50;;;;;;;;;;5025487;28;20165;-55
2023/08/30 12:06:39;;;;;;;4.67;3.27;;;;;;;;;;5009186;28;20166;-51
2023/08/30 12:09:09;;;;;;;4.57;3.10;;;;;;;;;;5008937;28;20223;-52
2023/08/30 12:11:35;;;;;;;3.87;2.90;;;;;;;;;;5026826;28;20596;-48
2023/08/30 12:14:04;;;;;;;6.13;3.30;;;;;;;;;;5009860;28;20171;-52
2023/08/30 12:16:31;;;;;;;3.47;2.67;;;;;;;;;;5012552;28;20174;-51
2023/08/30 12:19:07;;;;;;;3.83;2.93;;;;;;;;;;5012746;28;20173;-53
2023/08/30 12:21:40;;;;;;;5.50;3.40;;;;;;;;;;5012759;28;20236;-53
2023/08/30 12:24:06;;;;;;;6.57;3.33;;;;;;;;;;5011690;28;20499;-53
2023/08/30 12:26:32;;;;;;;7.20;3.67;;;;;;;;;;5011109;28;20180;-54
2023/08/30 12:28:58;;;;;;;4.37;3.33;;;;;;;;;;5011411;28;20731;-51
2023/08/30 12:31:27;;;;;;;5.27;3.63;;;;;;;;;;5027896;28;20206;-47
2023/08/30 12:33:54;;;;;;;5.63;3.33;;;;;;;;;;5010925;28;20559;-51
2023/08/30 12:36:22;;;;;;;7.83;3.00;;;;;;;;;;5010429;28;20846;-54
2023/08/30 12:38:52;;;;;;;5.00;3.10;;;;;;;;;;5028858;28;20174;-52
2023/08/30 12:41:20;;;;;;;6.57;2.83;;;;;;;;;;5037334;28;20173;-54
2023/08/30 12:43:46;;;;;;;5.00;3.53;;;;;;;;;;5027151;28;20545;-51
2023/08/30 12:46:13;;;;;;;5.17;3.20;;;;;;;;;;5008966;28;20612;-51
2023/08/30 12:48:39;;;;;;;5.23;2.90;;;;;;;;;;5009324;28;20482;-52
2023/08/30 12:51:06;;;;;;;4.77;3.00;;;;;;;;;;5010162;28;20604;-52
2023/08/30 12:53:33;;;;;;;3.57;2.83;;;;;;;;;;5027937;28;20166;-52
2023/08/30 12:55:59;;;;;;;7.00;3.10;;;;;;;;;;5030085;28;20169;-53
2023/08/30 12:58:25;;;;;;;6.83;2.70;;;;;;;;;;5014230;28;20166;-54
2023/08/30 13:00:53;;;;;;;6.67;3.20;;;;;;;;;;5033029;28;20170;-53
2023/08/30 13:03:19;;;;;;;4.40;2.70;;;;;;;;;;5013669;28;20552;-50
2023/08/30 13:05:46;;;;;;;3.40;2.57;;;;;;;;;;5031240;28;20700;-53
2023/08/30 13:08:14;;;;;;;4.33;2.93;;;;;;;;;;5016274;28;20173;-49
2023/08/30 13:10:41;;;;;;;4.90;2.73;;;;;;;;;;5015386;28;20178;-55
2023/08/30 13:13:07;;;;;;;3.60;2.17;;;;;;;;;;5014750;28;20259;-51
2023/08/30 13:15:33;;;;;;;6.60;3.93;;;;;;;;;;5035132;28;20173;-52
2023/08/30 13:17:59;;;;;;;5.80;3.10;;;;;;;;;;5035274;28;20177;-52
2023/08/30 13:20:26;;;;;;;5.13;3.00;;;;;;;;;;5051075;28;20176;-53
2023/08/30 13:22:52;;;;;;;2.53;2.33;;;;;;;;;;5033151;28;20228;-50
2023/08/30 13:25:18;;;;;;;7.40;3.77;;;;;;;;;;5029029;28;20214;-51
2023/08/30 13:27:44;;;;;;;9.60;4.83;;;;;;;;;;5030198;28;20623;-52
2023/08/30 13:30:11;;;;;;;6.00;3.03;;;;;;;;;;5029980;28;20737;-54
2023/08/30 13:32:37;;;;;;;8.40;4.07;;;;;;;;;;5029938;28;20751;-55
2023/08/30 13:35:05;;;;;;;4.60;2.70;;;;;;;;;;5030692;28;20174;-50
2023/08/30 13:37:31;;;;;;;5.90;3.27;;;;;;;;;;5030890;28;20166;-55
2023/08/30 13:39:57;;;;;;;2.40;2.20;;;;;;;;;;5031186;28;20261;-54
2023/08/30 13:42:23;;;;;;;3.43;3.07;;;;;;;;;;5032870;28;20713;-52
2023/08/30 13:44:53;;;;;;;3.03;2.43;;;;;;;;;;5033594;28;20483;-54
2023/08/30 13:47:20;;;;;;;3.20;2.73;;;;;;;;;;5032164;28;20170;-52
2023/08/30 13:49:47;;;;;;;3.63;2.73;;;;;;;;;;5030706;28;20198;-54
2023/08/30 13:52:14;;;;;;;5.27;3.33;;;;;;;;;;5030295;28;20304;-55
2023/08/30 13:54:41;;;;;;;6.00;2.93;;;;;;;;;;5030331;28;20174;-53
2023/08/30 13:57:07;;;;;;;5.17;3.03;;;;;;;;;;5028573;28;20181;-53
2023/08/30 13:59:35;;;;;;;4.23;2.80;;;;;;;;;;5029479;28;20167;-53
2023/08/30 14:02:05;;;;;;;3.10;2.80;;;;;;;;;;5029480;28;20271;-54
2023/08/30 14:04:32;;;;;;;5.13;2.87;;;;;;;;;;5028205;28;20197;-52
2023/08/30 14:06:58;;;;;;;4.03;2.63;;;;;;;;;;5028828;28;20192;-52
2023/08/30 14:09:24;;;;;;;5.00;2.83;;;;;;;;;;5030004;28;20241;-52
2023/08/30 14:11:52;;;;;;;4.40;2.80;;;;;;;;;;5030635;28;20213;-53
2023/08/30 14:14:18;;;;;;;3.00;2.70;;;;;;;;;;5022184;28;20337;-50
2023/08/30 14:16:46;;;;;;;5.63;2.67;;;;;;;;;;5024491;28;20201;-51
2023/08/30 14:19:11;;;;;;;4.50;2.93;;;;;;;;;;5029074;28;20228;-54
2023/08/30 14:21:38;;;;;;;3.87;2.70;;;;;;;;;;5028821;28;20182;-53
2023/08/30 14:24:04;;;;;;;4.70;2.80;;;;;;;;;;5031619;28;20178;-52
2023/08/30 14:26:30;;;;;;;4.70;2.47;;;;;;;;;;5033537;28;20173;-55
2023/08/30 14:28:56;;;;;;;3.50;2.50;;;;;;;;;;5034912;28;20188;-49
2023/08/30 14:31:22;;;;;;;3.37;2.50;;;;;;;;;;5032464;28;20205;-50
2023/08/30 14:33:54;;;;;;;3.13;2.53;;;;;;;;;;5032280;28;20627;-52
2023/08/30 14:36:20;;;;;;;3.93;2.83;;;;;;;;;;5030553;28;20265;-51
2023/08/30 14:38:47;;;;;;;5.07;2.50;;;;;;;;;;5048638;28;20177;-51
2023/08/30 14:41:15;;;;;;;5.83;3.00;;;;;;;;;;5031465;28;20684;-54
2023/08/30 14:43:41;;;;;;;3.87;2.60;;;;;;;;;;5049414;28;20177;-54